createdAt,value
2019-03-03T00:01:50.809Z,61.67
2019-03-03T00:06:54.388Z,61.59
2019-03-03T00:11:57.943Z,62.13
2019-03-03T00:17:01.504Z,62.15
2019-03-03T00:22:05.164Z,62.04
2019-03-03T00:27:08.718Z,63.39
2019-03-03T00:32:12.789Z,64.06
2019-03-03T00:37:23.833Z,64.02
2019-03-03T00:42:45.103Z,63.87
2019-03-03T00:48:06.029Z,64.11
2019-03-03T00:53:11.197Z,64.04
2019-03-03T00:58:16.327Z,63.56
2019-03-03T01:03:24.217Z,63.82
2019-03-03T01:08:29.362Z,63.17
2019-03-03T01:13:40.553Z,63.05
2019-03-03T01:18:54.458Z,63.30
2019-03-03T01:24:15.894Z,63.28
2019-03-03T01:29:19.450Z,63.28
2019-03-03T01:34:22.980Z,63.70
2019-03-03T01:39:26.539Z,64.18
2019-03-03T01:44:30.085Z,64.47
2019-03-03T01:49:33.651Z,64.52
2019-03-03T01:54:37.176Z,63.86
2019-03-03T01:59:40.757Z,64.43
2019-03-03T02:04:44.395Z,64.33
2019-03-03T02:09:47.934Z,64.42
2019-03-03T02:14:51.489Z,64.71
2019-03-03T02:19:55.013Z,63.75
2019-03-03T02:24:58.556Z,63.77
2019-03-03T02:30:02.130Z,63.93
2019-03-03T02:35:05.762Z,64.55
2019-03-03T02:40:12.265Z,64.60
2019-03-03T02:45:16.284Z,64.23
2019-03-03T02:50:20.186Z,64.41
2019-03-03T02:55:23.733Z,63.77
2019-03-03T03:00:27.295Z,64.08
2019-03-03T03:05:48.642Z,63.99
2019-03-03T03:10:56.561Z,63.91
2019-03-03T03:16:01.735Z,63.76
2019-03-03T03:21:12.847Z,64.50
2019-03-03T03:26:18.100Z,64.22
2019-03-03T03:31:29.236Z,64.99
2019-03-03T03:36:36.634Z,65.51
2019-03-03T03:41:41.187Z,64.86
2019-03-03T03:46:52.867Z,64.60
2019-03-03T03:51:57.989Z,64.59
2019-03-03T03:57:06.102Z,64.25
2019-03-03T04:02:23.269Z,64.22
2019-03-03T04:07:36.908Z,63.98
2019-03-03T04:12:42.036Z,63.67
2019-03-03T04:17:53.159Z,63.81
2019-03-03T04:23:01.086Z,63.77
2019-03-03T04:28:09.387Z,63.04
2019-03-03T04:33:14.503Z,63.49
2019-03-03T04:38:19.630Z,62.80
2019-03-03T04:43:24.742Z,63.29
2019-03-03T04:48:29.888Z,63.18
2019-03-03T04:53:34.990Z,63.21
2019-03-03T04:58:46.102Z,63.39
2019-03-03T05:03:51.212Z,63.30
2019-03-03T05:08:56.333Z,63.21
2019-03-03T05:14:01.471Z,63.28
2019-03-03T05:19:06.596Z,62.97
2019-03-03T05:24:10.162Z,63.88
2019-03-03T05:29:13.750Z,63.94
2019-03-03T05:34:17.275Z,63.48
2019-03-03T05:39:20.858Z,65.25
2019-03-03T05:44:24.418Z,64.82
2019-03-03T05:49:27.986Z,65.77
2019-03-03T05:54:31.696Z,66.02
2019-03-03T05:59:35.251Z,66.02
2019-03-03T06:04:38.821Z,66.62
2019-03-03T06:09:42.357Z,66.86
2019-03-03T06:14:45.899Z,67.12
2019-03-03T06:19:49.465Z,67.45
2019-03-03T06:24:53.036Z,67.74
2019-03-03T06:29:56.565Z,67.81
2019-03-03T06:35:00.310Z,68.18
2019-03-03T06:40:07.196Z,68.97
2019-03-03T06:45:13.362Z,68.55
2019-03-03T06:50:16.930Z,69.14
2019-03-03T06:55:21.421Z,68.54
2019-03-03T07:00:24.996Z,67.59
2019-03-03T07:05:28.596Z,67.04
2019-03-03T07:10:32.175Z,66.35
2019-03-03T07:15:35.728Z,65.02
2019-03-03T07:20:39.278Z,64.08
2019-03-03T07:25:42.895Z,63.50
2019-03-03T07:30:46.448Z,62.79
2019-03-03T07:35:49.993Z,61.97
2019-03-03T07:40:53.594Z,62.44
2019-03-03T07:45:57.143Z,61.91
2019-03-03T07:51:00.721Z,60.17
2019-03-03T07:56:04.937Z,59.58
2019-03-03T08:01:08.510Z,56.61
2019-03-03T08:06:13.078Z,43.44
2019-03-03T08:11:16.608Z,45.63
2019-03-03T08:16:20.157Z,45.94
2019-03-03T08:21:23.777Z,44.10
2019-03-03T08:26:27.311Z,41.63
2019-03-03T08:31:30.895Z,41.57
2019-03-03T08:36:34.446Z,44.42
2019-03-03T08:41:39.583Z,39.39
2019-03-03T08:46:50.960Z,33.41
2019-03-03T08:52:02.061Z,32.60
2019-03-03T08:57:10.110Z,29.69
2019-03-03T09:02:17.693Z,30.33
2019-03-03T09:07:34.857Z,35.12
2019-03-03T09:12:42.990Z,38.37
2019-03-03T09:18:00.214Z,39.92
2019-03-03T09:23:06.403Z,42.08
2019-03-03T09:28:14.563Z,42.04
2019-03-03T09:33:28.854Z,43.12
2019-03-03T09:38:34.013Z,43.26
2019-03-03T09:43:41.915Z,42.14
2019-03-03T09:48:49.861Z,43.32
2019-03-03T09:54:11.145Z,43.29
2019-03-03T09:59:32.680Z,42.40
2019-03-03T10:04:54.484Z,42.35
2019-03-03T10:10:02.423Z,41.33
2019-03-03T10:15:10.285Z,41.29
2019-03-03T10:20:18.296Z,41.61
2019-03-03T10:25:26.089Z,40.89
2019-03-03T10:30:47.981Z,40.31
2019-03-03T10:35:53.119Z,40.09
2019-03-03T10:41:14.654Z,40.09
2019-03-03T10:46:19.804Z,40.42
2019-03-03T10:51:37.268Z,40.65
2019-03-03T10:56:57.498Z,42.09
2019-03-03T11:02:18.869Z,41.66
2019-03-03T11:07:23.984Z,41.99
2019-03-03T11:12:38.364Z,42.13
2019-03-03T11:17:43.774Z,42.48
2019-03-03T11:22:51.927Z,42.04
2019-03-03T11:28:00.470Z,41.72
2019-03-03T11:33:20.865Z,43.34
2019-03-03T11:38:44.269Z,42.52
2019-03-03T11:43:55.827Z,43.04
2019-03-03T11:49:01.008Z,44.91
2019-03-03T11:54:06.648Z,45.47
2019-03-03T11:59:30.456Z,45.55
2019-03-03T12:04:35.640Z,44.75
2019-03-03T12:09:52.716Z,44.88
2019-03-03T12:15:00.732Z,44.29
2019-03-03T12:20:10.075Z,44.26
2019-03-03T12:25:17.844Z,43.92
2019-03-03T12:30:25.886Z,44.14
2019-03-03T12:35:46.292Z,44.86
2019-03-03T12:40:51.493Z,44.99
2019-03-03T12:46:02.482Z,45.69
2019-03-03T12:51:07.764Z,45.26
2019-03-03T12:56:22.474Z,45.16
2019-03-03T13:01:42.810Z,43.59
2019-03-03T13:06:48.105Z,44.76
2019-03-03T13:11:53.869Z,45.32
2019-03-03T13:17:14.405Z,45.45
2019-03-03T13:22:25.636Z,45.19
2019-03-03T13:27:47.112Z,45.79
2019-03-03T13:32:52.254Z,46.18
2019-03-03T13:37:57.952Z,45.14
2019-03-03T13:43:01.495Z,44.50
2019-03-03T13:48:05.064Z,45.41
2019-03-03T13:53:08.610Z,45.31
2019-03-03T13:58:12.152Z,45.07
2019-03-03T14:03:15.723Z,45.13
2019-03-03T14:08:19.360Z,45.64
2019-03-03T14:13:23.291Z,46.04
2019-03-03T14:18:26.927Z,46.23
2019-03-03T14:23:32.171Z,46.54
2019-03-03T14:28:36.339Z,46.61
2019-03-03T14:33:41.482Z,47.10
2019-03-03T14:38:45.099Z,47.19
2019-03-03T14:43:48.651Z,47.91
2019-03-03T14:48:52.190Z,47.48
2019-03-03T14:53:55.786Z,47.90
2019-03-03T14:58:59.738Z,48.19
2019-03-03T15:04:03.335Z,48.77
2019-03-03T15:09:08.681Z,48.51
2019-03-03T15:14:12.429Z,48.15
2019-03-03T15:19:16.858Z,48.74
2019-03-03T15:24:23.457Z,48.55
2019-03-03T15:29:27.198Z,48.74
2019-03-03T15:34:30.737Z,48.94
2019-03-03T15:39:34.544Z,49.51
2019-03-03T15:44:38.204Z,49.75
2019-03-03T15:49:41.943Z,49.72
2019-03-03T15:54:45.506Z,49.56
2019-03-03T15:59:49.130Z,49.68
2019-03-03T16:04:52.739Z,49.70
2019-03-03T16:09:57.135Z,49.66
2019-03-03T16:15:00.712Z,49.74
2019-03-03T16:20:07.231Z,50.02
2019-03-03T16:25:13.597Z,50.65
2019-03-03T16:30:18.667Z,50.78
2019-03-03T16:35:22.314Z,51.04
2019-03-03T16:40:26.477Z,51.15
2019-03-03T16:45:30.174Z,52.10
2019-03-03T16:50:33.789Z,52.74
2019-03-03T16:55:37.521Z,53.14
2019-03-03T17:00:41.061Z,53.26
2019-03-03T17:05:44.636Z,54.01
2019-03-03T17:10:48.342Z,54.73
2019-03-03T17:15:51.889Z,54.85
2019-03-03T17:20:55.490Z,54.72
2019-03-03T17:25:59.009Z,54.59
2019-03-03T17:31:02.647Z,54.65
2019-03-03T17:36:06.205Z,55.75
2019-03-03T17:41:09.892Z,57.61
2019-03-03T17:46:13.418Z,57.49
2019-03-03T17:51:17.020Z,57.17
2019-03-03T17:56:20.640Z,56.52
2019-03-03T18:01:24.280Z,56.34
2019-03-03T18:06:27.988Z,55.83
2019-03-03T18:11:31.646Z,55.63
2019-03-03T18:16:35.234Z,54.75
2019-03-03T18:21:39.078Z,55.05
2019-03-03T18:26:42.910Z,54.70
2019-03-03T18:31:46.450Z,54.79
2019-03-03T18:36:50.109Z,54.24
2019-03-03T18:41:53.787Z,54.22
2019-03-03T18:46:57.393Z,54.33
2019-03-03T18:52:00.963Z,54.37
2019-03-03T18:57:06.202Z,54.22
2019-03-03T19:02:09.780Z,54.35
2019-03-03T19:07:13.392Z,54.62
2019-03-03T19:12:19.554Z,54.41
2019-03-03T19:17:23.117Z,54.69
2019-03-03T19:22:26.716Z,54.28
2019-03-03T19:27:30.303Z,54.34
2019-03-03T19:32:33.857Z,54.66
2019-03-03T19:37:43.143Z,54.43
2019-03-03T19:42:47.128Z,54.51
2019-03-03T19:47:50.681Z,54.86
2019-03-03T19:52:54.250Z,54.71
2019-03-03T19:57:57.863Z,55.01
2019-03-03T20:03:01.426Z,54.93
2019-03-03T20:08:05.507Z,55.11
2019-03-03T20:13:09.321Z,55.21
2019-03-03T20:18:12.867Z,55.13
2019-03-03T20:23:16.490Z,55.39
2019-03-03T20:28:20.111Z,55.62
2019-03-03T20:33:23.661Z,55.23
2019-03-03T20:38:27.413Z,55.16
2019-03-03T20:43:31.084Z,54.92
2019-03-03T20:48:35.026Z,55.15
2019-03-03T20:53:38.611Z,55.06
2019-03-03T20:58:42.301Z,54.93
2019-03-03T21:03:46.073Z,55.23
2019-03-03T21:08:50.056Z,55.33
2019-03-03T21:13:53.612Z,55.55
2019-03-03T21:18:57.392Z,55.86
2019-03-03T21:24:01.150Z,55.96
2019-03-03T21:29:05.122Z,56.45
2019-03-03T21:34:08.830Z,56.77
2019-03-03T21:39:12.621Z,56.95
2019-03-03T21:44:16.416Z,56.94
2019-03-03T21:49:20.375Z,56.80
2019-03-03T21:54:24.541Z,56.87
2019-03-03T21:59:29.053Z,56.90
2019-03-03T22:04:32.780Z,56.82
2019-03-03T22:09:39.265Z,56.64
2019-03-03T22:14:42.907Z,57.29
2019-03-03T22:19:46.892Z,56.76
2019-03-03T22:24:51.183Z,56.75
2019-03-03T22:29:54.951Z,56.84
2019-03-03T22:34:58.581Z,56.49
2019-03-03T22:40:02.158Z,56.90
2019-03-03T22:45:08.990Z,57.51
2019-03-03T22:50:16.968Z,57.69
2019-03-03T22:55:21.446Z,57.49
2019-03-03T23:00:56.145Z,57.65
2019-03-03T23:06:08.605Z,57.47
2019-03-03T23:11:30.284Z,58.44
2019-03-03T23:16:48.832Z,58.76
2019-03-03T23:21:58.139Z,58.57
2019-03-03T23:27:01.678Z,58.82
2019-03-03T23:32:05.230Z,58.78
2019-03-03T23:37:08.819Z,59.35
2019-03-03T23:42:12.360Z,59.14
2019-03-03T23:47:15.925Z,59.17
2019-03-03T23:52:19.511Z,59.35
2019-03-03T23:57:23.539Z,59.37
